createdAt,value
2022-10-09T00:00:13.700Z,3.63
2022-10-09T00:02:40.251Z,5.00
2022-10-09T00:05:07.070Z,2.20
2022-10-09T00:07:42.601Z,7.13
2022-10-09T00:10:09.257Z,2.58
2022-10-09T00:12:41.401Z,3.28
2022-10-09T00:15:08.149Z,2.20
2022-10-09T00:17:34.555Z,1.65
2022-10-09T00:20:00.983Z,3.77
2022-10-09T00:22:31.252Z,2.45
2022-10-09T00:24:57.657Z,1.65
2022-10-09T00:27:24.781Z,3.35
2022-10-09T00:29:51.453Z,1.50
2022-10-09T00:32:18.414Z,6.97
2022-10-09T00:34:53.870Z,1.88
2022-10-09T00:37:20.421Z,2.00
2022-10-09T00:39:49.514Z,3.08
2022-10-09T00:42:15.971Z,3.25
2022-10-09T00:44:58.183Z,5.83
2022-10-09T00:47:36.777Z,1.55
2022-10-09T00:50:40.255Z,6.55
2022-10-09T00:53:09.280Z,6.32
2022-10-09T00:55:37.797Z,4.22
2022-10-09T00:58:04.909Z,2.60
2022-10-09T01:00:31.464Z,0.95
2022-10-09T01:02:58.107Z,3.17
2022-10-09T01:05:52.001Z,2.35
2022-10-09T01:08:45.448Z,2.58
2022-10-09T01:11:21.097Z,6.13
2022-10-09T01:13:47.421Z,2.03
2022-10-09T01:16:35.963Z,3.17
2022-10-09T01:19:39.852Z,2.25
2022-10-09T01:23:04.153Z,1.23
2022-10-09T01:26:01.700Z,4.37
2022-10-09T01:28:30.397Z,2.28
2022-10-09T01:31:03.146Z,3.05
2022-10-09T01:33:31.617Z,1.92
2022-10-09T01:35:59.701Z,2.58
2022-10-09T01:38:28.873Z,2.10
2022-10-09T01:41:13.206Z,3.17
2022-10-09T01:43:45.528Z,2.38
2022-10-09T01:46:25.685Z,1.75
2022-10-09T01:49:29.734Z,2.58
2022-10-09T01:52:16.932Z,1.47
2022-10-09T01:55:08.367Z,2.35
2022-10-09T01:57:52.596Z,2.90
2022-10-09T02:00:19.476Z,1.30
2022-10-09T02:02:48.368Z,1.27
2022-10-09T02:05:23.365Z,2.43
2022-10-09T02:07:49.987Z,3.80
2022-10-09T02:10:18.672Z,2.03
2022-10-09T02:12:50.912Z,1.50
2022-10-09T02:15:17.837Z,3.03
2022-10-09T02:17:54.821Z,4.27
2022-10-09T02:20:30.236Z,4.30
2022-10-09T02:22:58.462Z,2.72
2022-10-09T02:25:25.026Z,1.50
2022-10-09T02:27:51.481Z,1.73
2022-10-09T02:30:20.159Z,2.70
2022-10-09T02:32:51.990Z,1.10
2022-10-09T02:35:18.622Z,1.88
2022-10-09T02:37:45.003Z,5.82
2022-10-09T02:40:11.406Z,0.65
2022-10-09T02:42:37.945Z,1.10
2022-10-09T02:45:05.031Z,1.52
2022-10-09T02:50:13.086Z,3.15
2022-10-09T02:52:39.638Z,1.20
2022-10-09T02:55:06.381Z,3.13
2022-10-09T02:57:32.902Z,3.25
2022-10-09T03:00:02.070Z,4.55
2022-10-09T03:02:28.545Z,3.05
2022-10-09T03:04:54.993Z,1.05
2022-10-09T03:07:21.372Z,3.30
2022-10-09T03:09:47.764Z,1.52
2022-10-09T03:12:16.184Z,3.72
2022-10-09T03:14:45.608Z,4.43
2022-10-09T03:17:12.300Z,0.95
2022-10-09T03:19:38.664Z,2.93
2022-10-09T03:22:05.092Z,1.35
2022-10-09T03:24:31.878Z,1.45
2022-10-09T03:27:07.233Z,1.10
2022-10-09T03:29:33.609Z,3.60
2022-10-09T03:32:00.115Z,1.10
2022-10-09T03:34:32.386Z,1.40
2022-10-09T03:36:58.741Z,3.33
2022-10-09T03:39:25.264Z,1.20
2022-10-09T03:41:51.624Z,1.00
2022-10-09T03:44:18.009Z,1.20
2022-10-09T03:46:44.422Z,1.10
2022-10-09T03:49:11.414Z,2.60
2022-10-09T03:51:37.960Z,1.67
2022-10-09T03:54:04.651Z,5.07
2022-10-09T03:56:31.229Z,1.77
2022-10-09T03:58:57.613Z,3.63
2022-10-09T04:01:24.379Z,0.82
2022-10-09T04:03:51.019Z,2.35
2022-10-09T04:06:17.449Z,1.70
2022-10-09T04:08:43.952Z,2.40
2022-10-09T04:11:10.316Z,2.05
2022-10-09T04:13:39.936Z,2.33
2022-10-09T04:16:06.754Z,2.50
2022-10-09T04:18:33.166Z,6.63
2022-10-09T04:20:59.719Z,5.10
2022-10-09T04:23:27.458Z,2.08
2022-10-09T04:25:54.920Z,1.90
2022-10-09T04:28:22.168Z,2.90
2022-10-09T04:30:48.693Z,1.95
2022-10-09T04:33:15.273Z,3.47
2022-10-09T04:35:45.634Z,5.03
2022-10-09T04:38:12.452Z,3.92
2022-10-09T04:40:38.874Z,1.92
2022-10-09T04:45:59.039Z,7.72
2022-10-09T04:48:25.954Z,2.15
2022-10-09T04:50:52.511Z,2.97
2022-10-09T04:53:18.893Z,2.00
2022-10-09T04:55:45.609Z,4.23
2022-10-09T04:58:13.092Z,7.45
2022-10-09T05:00:41.794Z,2.80
2022-10-09T05:03:08.776Z,3.78
2022-10-09T05:05:35.412Z,1.60
2022-10-09T05:08:02.096Z,3.33
2022-10-09T05:10:28.645Z,1.67
2022-10-09T05:12:55.074Z,3.03
2022-10-09T05:15:24.029Z,3.97
2022-10-09T05:17:50.947Z,3.25
2022-10-09T05:20:17.577Z,3.40
2022-10-09T05:22:44.783Z,3.95
2022-10-09T05:25:11.656Z,4.78
2022-10-09T05:27:38.215Z,3.70
2022-10-09T05:30:08.132Z,6.05
2022-10-09T05:32:34.699Z,4.20
2022-10-09T05:35:06.615Z,2.00
2022-10-09T05:37:33.009Z,5.18
2022-10-09T05:40:02.666Z,6.18
2022-10-09T05:42:29.560Z,4.13
2022-10-09T05:44:55.987Z,5.97
2022-10-09T05:47:30.572Z,1.92
2022-10-09T05:49:56.944Z,3.45
2022-10-09T05:52:23.543Z,4.82
2022-10-09T05:54:50.448Z,6.13
2022-10-09T05:57:16.828Z,10.13
2022-10-09T05:59:43.873Z,4.15
2022-10-09T06:02:10.438Z,4.28
2022-10-09T06:04:36.819Z,6.65
2022-10-09T06:07:03.319Z,3.17
2022-10-09T06:09:29.690Z,4.43
2022-10-09T06:11:56.144Z,5.32
2022-10-09T06:14:38.231Z,4.82
2022-10-09T06:17:07.813Z,2.80
2022-10-09T06:19:34.434Z,3.55
2022-10-09T06:22:09.943Z,4.43
2022-10-09T06:24:36.834Z,3.33
2022-10-09T06:27:03.589Z,2.75
2022-10-09T06:29:30.631Z,5.35
2022-10-09T06:31:57.206Z,2.60
2022-10-09T06:34:24.086Z,6.33
2022-10-09T06:36:50.718Z,2.63
2022-10-09T06:39:20.217Z,3.33
2022-10-09T06:41:49.601Z,3.28
2022-10-09T06:44:17.278Z,5.68
2022-10-09T06:46:48.563Z,2.87
2022-10-09T06:49:14.995Z,4.07
2022-10-09T06:51:49.998Z,2.65
2022-10-09T06:54:17.455Z,4.25
2022-10-09T06:56:53.032Z,17.73
2022-10-09T06:59:19.500Z,10.00
2022-10-09T07:01:45.911Z,6.60
2022-10-09T07:04:14.668Z,5.00
2022-10-09T07:06:43.955Z,3.72
2022-10-09T07:09:12.559Z,2.42
2022-10-09T07:11:49.202Z,2.50
2022-10-09T07:14:16.311Z,3.85
2022-10-09T07:16:45.960Z,5.63
2022-10-09T07:19:13.687Z,3.95
2022-10-09T07:21:42.954Z,5.28
2022-10-09T07:24:11.097Z,6.17
2022-10-09T07:26:40.037Z,4.05
2022-10-09T07:29:09.167Z,3.85
2022-10-09T07:31:42.924Z,6.28
2022-10-09T07:34:09.638Z,5.80
2022-10-09T07:36:36.305Z,7.13
2022-10-09T07:39:09.222Z,8.50
2022-10-09T07:41:35.709Z,8.27
2022-10-09T07:44:02.646Z,4.35
2022-10-09T07:46:33.273Z,4.30
2022-10-09T07:49:01.244Z,6.63
2022-10-09T07:51:35.597Z,6.80
2022-10-09T07:54:02.762Z,4.40
2022-10-09T07:56:31.961Z,5.70
2022-10-09T07:59:00.596Z,7.22
2022-10-09T08:01:28.344Z,7.63
2022-10-09T08:03:55.471Z,4.95
2022-10-09T08:06:22.257Z,9.15
2022-10-09T08:08:53.588Z,8.55
2022-10-09T08:11:30.373Z,6.68
2022-10-09T08:13:59.784Z,4.35
2022-10-09T08:19:31.836Z,4.63
2022-10-09T08:22:16.308Z,3.60
2022-10-09T08:24:51.693Z,5.25
2022-10-09T08:30:24.719Z,8.32
2022-10-09T08:32:54.006Z,5.45
2022-10-09T08:35:40.568Z,5.40
2022-10-09T08:38:07.293Z,6.57
2022-10-09T08:40:36.530Z,6.88
2022-10-09T08:43:06.641Z,5.35
2022-10-09T08:45:35.443Z,8.25
2022-10-09T08:48:26.547Z,8.10
2022-10-09T08:51:05.543Z,4.15
2022-10-09T08:53:34.732Z,7.47
2022-10-09T08:56:03.319Z,6.55
2022-10-09T08:58:43.800Z,5.78
2022-10-09T09:01:32.678Z,5.38
2022-10-09T09:04:37.690Z,2.88
2022-10-09T09:07:31.863Z,6.35
2022-10-09T09:10:14.760Z,6.68
2022-10-09T09:12:50.730Z,7.68
2022-10-09T09:15:45.048Z,7.57
2022-10-09T09:18:29.970Z,4.97
2022-10-09T09:21:04.997Z,9.25
2022-10-09T09:23:42.519Z,6.90
2022-10-09T09:26:21.735Z,11.88
2022-10-09T09:31:54.562Z,8.45
2022-10-09T09:34:55.909Z,5.43
2022-10-09T09:37:23.330Z,8.32
2022-10-09T09:40:36.332Z,5.47
2022-10-09T09:43:22.548Z,5.88
2022-10-09T09:46:16.985Z,5.35
2022-10-09T09:49:00.183Z,3.83
2022-10-09T09:51:36.048Z,5.65
2022-10-09T09:54:31.095Z,11.10
2022-10-09T09:57:17.079Z,7.07
2022-10-09T10:00:30.986Z,7.35
2022-10-09T10:03:17.080Z,8.00
2022-10-09T10:05:44.481Z,12.52
2022-10-09T10:08:41.873Z,4.07
2022-10-09T10:11:18.728Z,5.15
2022-10-09T10:13:54.503Z,5.20
2022-10-09T10:16:29.505Z,4.60
2022-10-09T10:22:42.695Z,4.57
2022-10-09T10:25:34.312Z,5.25
2022-10-09T10:28:22.779Z,5.07
2022-10-09T10:30:50.675Z,5.80
2022-10-09T10:33:47.005Z,5.03
2022-10-09T10:39:50.245Z,8.15
2022-10-09T10:43:03.429Z,5.20
2022-10-09T10:46:18.336Z,5.07
2022-10-09T10:48:53.995Z,4.35
2022-10-09T10:51:35.722Z,8.27
2022-10-09T10:54:17.825Z,3.97
2022-10-09T10:56:55.936Z,4.78
2022-10-09T11:00:00.536Z,4.60
2022-10-09T11:03:08.829Z,4.65
2022-10-09T11:06:27.510Z,3.75
2022-10-09T11:09:39.272Z,5.55
2022-10-09T11:12:50.603Z,3.95
2022-10-09T11:16:04.338Z,4.23
2022-10-09T11:22:47.061Z,3.42
2022-10-09T11:26:08.811Z,6.28
2022-10-09T11:28:57.201Z,5.30
2022-10-09T11:31:29.667Z,4.90
2022-10-09T11:34:46.849Z,2.45
2022-10-09T11:37:19.269Z,3.53
2022-10-09T11:39:46.432Z,5.13
2022-10-09T11:42:21.520Z,3.47
2022-10-09T11:45:24.475Z,4.90
2022-10-09T11:48:35.334Z,5.85
2022-10-09T11:54:44.045Z,3.10
2022-10-09T11:57:15.279Z,3.42
2022-10-09T11:59:48.187Z,4.72
2022-10-09T12:02:27.342Z,1.92
2022-10-09T12:04:55.381Z,2.65
2022-10-09T12:07:36.674Z,3.60
2022-10-09T12:10:20.354Z,2.67
2022-10-09T12:13:03.314Z,3.57
2022-10-09T12:15:54.860Z,6.60
2022-10-09T12:18:32.357Z,2.90
2022-10-09T12:21:23.226Z,6.78
2022-10-09T12:23:58.921Z,4.68
2022-10-09T12:26:31.553Z,5.13
2022-10-09T12:29:01.590Z,2.80
2022-10-09T12:31:51.162Z,2.85
2022-10-09T12:34:25.697Z,2.22
2022-10-09T12:37:02.695Z,2.00
2022-10-09T12:39:36.614Z,2.25
2022-10-09T12:42:04.386Z,4.82
2022-10-09T12:45:10.505Z,3.15
2022-10-09T12:47:45.741Z,4.43
2022-10-09T12:50:12.338Z,4.45
2022-10-09T12:52:59.788Z,5.72
2022-10-09T12:55:35.244Z,7.28
2022-10-09T12:58:21.416Z,7.22
2022-10-09T13:01:11.147Z,8.52
2022-10-09T13:03:55.032Z,5.07
2022-10-09T13:06:26.046Z,4.37
2022-10-09T13:08:56.384Z,3.90
2022-10-09T13:11:42.398Z,3.22
2022-10-09T13:14:50.996Z,6.95
2022-10-09T13:17:47.145Z,4.95
2022-10-09T13:20:32.568Z,2.40
2022-10-09T13:29:48.917Z,4.55
2022-10-09T13:32:24.452Z,6.22
2022-10-09T13:34:57.953Z,4.80
2022-10-09T13:37:41.209Z,6.90
2022-10-09T13:40:33.209Z,4.55
2022-10-09T13:43:06.283Z,6.35
2022-10-09T13:45:32.792Z,3.00
2022-10-09T13:48:03.117Z,7.30
2022-10-09T13:50:29.748Z,3.85
2022-10-09T13:53:14.057Z,3.85
2022-10-09T13:55:49.807Z,6.22
2022-10-09T13:58:16.362Z,6.38
2022-10-09T14:00:45.279Z,6.33
2022-10-09T14:03:11.701Z,4.82
2022-10-09T14:05:38.448Z,2.95
2022-10-09T14:08:05.608Z,7.50
2022-10-09T14:10:42.814Z,4.75
2022-10-09T14:15:53.039Z,8.00
2022-10-09T14:18:25.483Z,6.07
2022-10-09T14:20:59.136Z,6.03
2022-10-09T14:23:41.816Z,5.00
2022-10-09T14:26:08.227Z,4.83
2022-10-09T14:28:36.514Z,4.82
2022-10-09T14:31:07.148Z,2.78
2022-10-09T14:33:33.913Z,5.32
2022-10-09T14:36:15.183Z,6.80
2022-10-09T14:38:42.709Z,8.93
2022-10-09T14:41:09.757Z,5.40
2022-10-09T14:43:48.297Z,2.17
2022-10-09T14:46:17.098Z,3.00
2022-10-09T14:48:48.807Z,3.28
2022-10-09T14:51:18.018Z,4.47
2022-10-09T14:53:44.411Z,5.93
2022-10-09T14:56:13.689Z,13.43
2022-10-09T14:58:46.823Z,7.32
2022-10-09T15:01:26.062Z,12.52
2022-10-09T15:15:25.403Z,4.88
2022-10-09T15:27:01.242Z,2.85
2022-10-09T15:33:01.795Z,2.45
2022-10-09T15:35:30.892Z,3.30
2022-10-09T15:38:02.814Z,4.30
2022-10-09T15:40:44.940Z,2.42
2022-10-09T15:43:38.968Z,5.20
2022-10-09T16:01:12.977Z,3.17
2022-10-09T16:04:48.001Z,2.03
2022-10-09T16:07:14.720Z,3.30
2022-10-09T16:09:52.682Z,3.08
2022-10-09T16:12:21.811Z,3.13
2022-10-09T16:14:48.286Z,4.80
2022-10-09T16:17:17.662Z,4.27
2022-10-09T16:20:02.918Z,5.07
2022-10-09T16:27:56.214Z,3.58
2022-10-09T16:31:05.485Z,3.93
2022-10-09T16:33:37.785Z,4.60
2022-10-09T16:39:34.318Z,5.60
2022-10-09T16:46:46.985Z,4.30
2022-10-09T16:49:37.834Z,3.92
2022-10-09T16:55:03.148Z,4.68
2022-10-09T16:57:29.687Z,5.32
2022-10-09T16:59:56.442Z,2.80
2022-10-09T17:02:49.684Z,6.97
2022-10-09T17:05:28.866Z,7.95
2022-10-09T17:07:56.351Z,5.70
2022-10-09T17:13:03.208Z,3.10
2022-10-09T17:15:29.861Z,2.67
2022-10-09T17:18:11.410Z,2.80
2022-10-09T17:20:38.811Z,6.22
2022-10-09T17:23:16.140Z,5.38
2022-10-09T17:25:44.038Z,9.50
2022-10-09T17:28:19.767Z,4.93
2022-10-09T17:30:46.217Z,2.53
2022-10-09T17:34:21.474Z,2.85
2022-10-09T17:36:51.796Z,5.22
2022-10-09T17:39:18.311Z,4.90
2022-10-09T17:41:47.603Z,3.75
2022-10-09T17:44:23.310Z,5.22
2022-10-09T17:47:10.414Z,3.35
2022-10-09T17:49:37.045Z,5.28
2022-10-09T17:52:03.811Z,4.50
2022-10-09T17:54:33.458Z,4.00
2022-10-09T17:57:13.390Z,4.68
2022-10-09T17:59:40.035Z,3.95
2022-10-09T18:02:06.497Z,4.13
2022-10-09T18:04:32.969Z,8.17
2022-10-09T18:07:14.227Z,13.70
2022-10-09T18:09:40.709Z,18.33
2022-10-09T18:12:07.153Z,8.32
2022-10-09T18:14:39.386Z,7.90
2022-10-09T18:17:06.057Z,10.20
2022-10-09T18:19:35.491Z,8.00
2022-10-09T18:22:01.915Z,8.90
2022-10-09T18:24:28.557Z,6.93
2022-10-09T18:26:54.984Z,10.75
2022-10-09T18:29:22.601Z,10.47
2022-10-09T18:31:50.525Z,19.55
2022-10-09T18:34:17.074Z,18.20
2022-10-09T18:36:43.453Z,18.98
2022-10-09T18:39:14.519Z,26.15
2022-10-09T18:41:41.356Z,19.60
2022-10-09T18:44:12.779Z,16.63
2022-10-09T18:46:42.576Z,10.88
2022-10-09T18:49:11.810Z,11.00
2022-10-09T18:51:40.777Z,14.75
2022-10-09T18:54:08.329Z,11.30
2022-10-09T18:56:36.654Z,21.67
2022-10-09T18:59:10.470Z,14.90
2022-10-09T19:01:36.999Z,15.77
2022-10-09T19:04:13.003Z,13.57
2022-10-09T19:06:39.553Z,10.83
2022-10-09T19:09:06.549Z,14.82
2022-10-09T19:11:34.187Z,11.35
2022-10-09T19:14:00.996Z,10.48
2022-10-09T19:16:33.048Z,6.57
2022-10-09T19:19:00.015Z,8.63
2022-10-09T19:21:26.451Z,7.53
2022-10-09T19:23:53.903Z,7.65
2022-10-09T19:26:22.007Z,7.80
2022-10-09T19:28:48.511Z,5.32
2022-10-09T19:31:16.437Z,10.43
2022-10-09T19:33:43.102Z,6.50
2022-10-09T19:36:12.647Z,7.05
2022-10-09T19:38:39.424Z,8.48
2022-10-09T19:41:08.552Z,7.65
2022-10-09T19:43:36.557Z,10.67
2022-10-09T19:46:18.014Z,6.75
2022-10-09T19:48:45.763Z,7.85
2022-10-09T19:51:26.393Z,6.68
2022-10-09T19:53:53.679Z,7.20
2022-10-09T19:56:26.350Z,9.23
2022-10-09T19:58:54.481Z,8.20
2022-10-09T20:01:24.078Z,13.57
2022-10-09T20:04:00.211Z,7.63
2022-10-09T20:06:27.877Z,12.05
2022-10-09T20:08:54.281Z,8.53
2022-10-09T20:11:21.180Z,6.63
2022-10-09T20:13:53.454Z,6.20
2022-10-09T20:16:22.909Z,9.02
2022-10-09T20:18:49.954Z,8.10
2022-10-09T20:21:18.038Z,5.37
2022-10-09T20:23:45.183Z,5.50
2022-10-09T20:26:18.435Z,5.55
2022-10-09T20:28:46.173Z,4.65
2022-10-09T20:31:17.979Z,6.53
2022-10-09T20:33:45.955Z,3.80
2022-10-09T20:36:26.159Z,4.32
2022-10-09T20:38:58.384Z,7.07
2022-10-09T20:41:25.998Z,5.40
2022-10-09T20:43:53.907Z,6.95
2022-10-09T20:46:21.783Z,8.03
2022-10-09T20:48:48.593Z,6.95
2022-10-09T20:51:15.525Z,4.00
2022-10-09T20:53:42.043Z,8.13
2022-10-09T20:56:11.584Z,6.25
2022-10-09T20:58:39.106Z,8.57
2022-10-09T21:01:10.407Z,6.72
2022-10-09T21:03:38.238Z,6.35
2022-10-09T21:06:11.300Z,3.75
2022-10-09T21:08:38.833Z,5.20
2022-10-09T21:11:11.174Z,7.07
2022-10-09T21:13:38.911Z,5.65
2022-10-09T21:16:11.550Z,4.63
2022-10-09T21:18:39.168Z,4.93
2022-10-09T21:21:07.892Z,5.38
2022-10-09T21:23:35.333Z,5.70
2022-10-09T21:26:02.452Z,6.45
2022-10-09T21:28:29.336Z,3.78
2022-10-09T21:30:55.884Z,4.88
2022-10-09T21:33:22.290Z,8.80
2022-10-09T21:35:51.267Z,5.10
2022-10-09T21:38:19.918Z,6.85
2022-10-09T21:40:46.994Z,4.22
2022-10-09T21:43:13.496Z,6.57
2022-10-09T21:45:40.527Z,10.23
2022-10-09T21:48:07.049Z,5.73
2022-10-09T21:50:34.476Z,5.63
2022-10-09T21:53:00.864Z,5.38
2022-10-09T21:55:27.471Z,5.82
2022-10-09T21:57:54.426Z,4.07
2022-10-09T22:00:21.499Z,4.20
2022-10-09T22:02:48.072Z,7.20
2022-10-09T22:05:15.378Z,4.35
2022-10-09T22:07:41.803Z,6.68
2022-10-09T22:10:08.714Z,5.78
2022-10-09T22:12:35.165Z,4.97
2022-10-09T22:15:01.763Z,8.10
2022-10-09T22:17:28.296Z,3.50
2022-10-09T22:19:54.863Z,5.43
2022-10-09T22:22:23.696Z,6.07
2022-10-09T22:24:51.108Z,5.80
2022-10-09T22:27:18.864Z,4.97
2022-10-09T22:29:45.304Z,5.25
2022-10-09T22:32:11.965Z,4.07
2022-10-09T22:34:38.525Z,5.97
2022-10-09T22:37:05.024Z,4.07
2022-10-09T22:39:31.643Z,6.28
2022-10-09T22:41:58.008Z,5.13
2022-10-09T22:44:24.435Z,4.68
2022-10-09T22:46:51.182Z,7.18
2022-10-09T22:49:18.204Z,3.10
2022-10-09T22:51:45.377Z,5.60
2022-10-09T22:54:13.191Z,4.45
2022-10-09T22:56:43.553Z,4.22
2022-10-09T22:59:12.105Z,7.00
2022-10-09T23:01:54.935Z,3.77
2022-10-09T23:04:22.644Z,3.15
2022-10-09T23:06:52.487Z,4.57
2022-10-09T23:09:19.649Z,4.88
2022-10-09T23:11:46.139Z,7.43
2022-10-09T23:14:13.245Z,4.80
2022-10-09T23:16:40.215Z,5.80
2022-10-09T23:19:07.468Z,3.42
2022-10-09T23:21:35.265Z,4.15
2022-10-09T23:24:01.762Z,4.22
2022-10-09T23:26:30.694Z,2.60
2022-10-09T23:29:02.548Z,2.90
2022-10-09T23:31:29.602Z,3.35
2022-10-09T23:33:56.722Z,3.08
2022-10-09T23:36:25.345Z,3.63
2022-10-09T23:38:52.104Z,3.00
2022-10-09T23:41:21.196Z,3.55
2022-10-09T23:43:48.478Z,4.00
2022-10-09T23:46:20.211Z,3.17
2022-10-09T23:48:47.917Z,4.68
2022-10-09T23:51:15.175Z,4.67
2022-10-09T23:53:42.154Z,7.00
2022-10-09T23:56:38.784Z,2.75
2022-10-09T23:59:06.249Z,3.70
